createdAt,value
2023-03-13T00:01:20.769Z,8.77
2023-03-13T00:03:52.371Z,8.85
2023-03-13T00:06:23.649Z,8.96
2023-03-13T00:08:50.052Z,9.00
2023-03-13T00:11:16.474Z,9.10
2023-03-13T00:13:44.062Z,9.16
2023-03-13T00:16:13.365Z,9.29
2023-03-13T00:18:47.994Z,9.39
2023-03-13T00:21:14.889Z,9.55
2023-03-13T00:23:41.385Z,9.58
2023-03-13T00:26:15.277Z,9.59
2023-03-13T00:28:44.508Z,9.63
2023-03-13T00:31:15.285Z,9.69
2023-03-13T00:33:44.028Z,9.67
2023-03-13T00:36:21.620Z,9.72
2023-03-13T00:38:48.812Z,9.80
2023-03-13T00:41:18.513Z,9.87
2023-03-13T00:43:46.852Z,9.94
2023-03-13T00:46:31.687Z,9.97
2023-03-13T00:48:58.155Z,9.99
2023-03-13T00:51:26.748Z,10.04
2023-03-13T00:53:56.836Z,10.00
2023-03-13T00:56:23.582Z,10.12
2023-03-13T00:58:50.484Z,10.15
2023-03-13T01:01:27.955Z,10.11
2023-03-13T01:03:59.913Z,10.06
2023-03-13T01:06:29.190Z,10.06
2023-03-13T01:08:58.782Z,10.04
2023-03-13T01:11:27.957Z,10.00
2023-03-13T01:13:56.837Z,10.03
2023-03-13T01:16:23.824Z,10.04
2023-03-13T01:18:55.917Z,10.03
2023-03-13T01:21:24.134Z,10.12
2023-03-13T01:23:52.410Z,10.22
2023-03-13T01:26:19.843Z,10.14
2023-03-13T01:28:46.393Z,10.17
2023-03-13T01:31:24.857Z,10.15
2023-03-13T01:33:54.934Z,10.15
2023-03-13T01:36:21.801Z,10.13
2023-03-13T01:38:52.407Z,10.12
2023-03-13T01:41:22.379Z,10.08
2023-03-13T01:43:49.478Z,10.07
2023-03-13T01:46:18.969Z,10.12
2023-03-13T01:49:00.672Z,10.12
2023-03-13T01:51:32.678Z,10.12
2023-03-13T01:54:24.325Z,10.13
2023-03-13T01:57:24.815Z,10.33
2023-03-13T02:00:05.027Z,10.33
2023-03-13T02:02:31.589Z,10.39
2023-03-13T02:05:01.819Z,10.49
2023-03-13T02:07:35.064Z,10.49
2023-03-13T02:10:04.287Z,10.58
2023-03-13T02:12:36.327Z,10.68
2023-03-13T02:15:06.875Z,10.78
2023-03-13T02:17:35.705Z,10.84
2023-03-13T02:20:02.556Z,10.93
2023-03-13T02:22:31.933Z,10.93
2023-03-13T02:25:17.511Z,10.97
2023-03-13T02:27:45.750Z,10.94
2023-03-13T02:30:13.622Z,11.02
2023-03-13T02:32:41.162Z,11.06
2023-03-13T02:35:11.863Z,11.15
2023-03-13T02:37:43.175Z,11.09
2023-03-13T02:40:13.952Z,11.15
2023-03-13T02:42:43.769Z,11.15
2023-03-13T02:45:13.457Z,11.21
2023-03-13T02:47:39.870Z,11.24
2023-03-13T02:50:06.975Z,11.18
2023-03-13T02:52:46.646Z,11.21
2023-03-13T02:55:18.140Z,11.41
2023-03-13T02:57:47.185Z,11.40
2023-03-13T03:00:17.444Z,11.44
2023-03-13T03:02:44.999Z,11.47
2023-03-13T03:05:12.815Z,11.47
2023-03-13T03:07:39.545Z,11.46
2023-03-13T03:10:06.663Z,11.51
2023-03-13T03:12:35.268Z,11.56
2023-03-13T03:15:04.725Z,11.56
2023-03-13T03:17:31.252Z,11.55
2023-03-13T03:19:57.715Z,11.62
2023-03-13T03:22:26.668Z,11.67
2023-03-13T03:24:53.062Z,11.67
2023-03-13T03:27:19.721Z,11.68
2023-03-13T03:29:46.122Z,11.64
2023-03-13T03:32:15.098Z,11.66
2023-03-13T03:34:41.643Z,11.70
2023-03-13T03:37:08.040Z,11.75
2023-03-13T03:39:34.647Z,11.72
2023-03-13T03:42:01.113Z,11.77
2023-03-13T03:44:29.762Z,11.85
2023-03-13T03:46:58.400Z,11.87
2023-03-13T03:49:26.139Z,11.87
2023-03-13T03:51:54.963Z,11.85
2023-03-13T03:54:21.303Z,11.80
2023-03-13T03:56:50.077Z,11.84
2023-03-13T03:59:16.640Z,11.84
2023-03-13T04:01:45.398Z,11.92
2023-03-13T04:04:11.926Z,11.96
2023-03-13T04:06:38.437Z,11.92
2023-03-13T04:09:04.823Z,11.97
2023-03-13T04:11:32.530Z,11.94
2023-03-13T04:13:58.882Z,12.01
2023-03-13T04:16:27.193Z,11.96
2023-03-13T04:18:53.691Z,12.01
2023-03-13T04:21:20.307Z,12.07
2023-03-13T04:23:46.861Z,12.06
2023-03-13T04:26:13.304Z,12.05
2023-03-13T04:28:39.722Z,12.03
2023-03-13T04:31:06.197Z,12.01
2023-03-13T04:33:32.748Z,12.00
2023-03-13T04:35:59.168Z,12.00
2023-03-13T04:38:26.157Z,12.00
2023-03-13T04:40:55.189Z,11.94
2023-03-13T04:43:21.671Z,11.89
2023-03-13T04:45:48.226Z,11.90
2023-03-13T04:48:14.684Z,11.96
2023-03-13T04:50:41.211Z,11.97
2023-03-13T04:53:07.631Z,11.95
2023-03-13T04:55:34.121Z,11.99
2023-03-13T04:58:00.508Z,11.95
2023-03-13T05:00:29.262Z,12.02
2023-03-13T05:02:55.663Z,11.98
2023-03-13T05:05:24.740Z,11.96
2023-03-13T05:07:53.363Z,11.98
2023-03-13T05:10:19.801Z,12.00
2023-03-13T05:12:46.302Z,12.06
2023-03-13T05:15:15.106Z,12.00
2023-03-13T05:17:41.529Z,12.01
2023-03-13T05:20:11.217Z,12.02
2023-03-13T05:22:38.770Z,12.04
2023-03-13T05:25:08.271Z,12.05
2023-03-13T05:27:34.706Z,12.06
2023-03-13T05:30:01.277Z,12.08
2023-03-13T05:32:28.026Z,12.07
2023-03-13T05:34:54.456Z,12.08
2023-03-13T05:37:23.365Z,12.11
2023-03-13T05:39:51.952Z,12.13
2023-03-13T05:42:20.465Z,12.09
2023-03-13T05:44:46.886Z,12.17
2023-03-13T05:47:13.269Z,12.19
2023-03-13T05:49:39.707Z,12.18
2023-03-13T05:52:06.171Z,12.15
2023-03-13T05:54:32.593Z,12.18
2023-03-13T05:56:58.981Z,12.19
2023-03-13T05:59:25.431Z,12.24
2023-03-13T06:01:52.060Z,12.26
2023-03-13T06:04:18.692Z,12.31
2023-03-13T06:06:46.389Z,12.35
2023-03-13T06:09:12.912Z,12.39
2023-03-13T06:11:39.347Z,12.36
2023-03-13T06:14:05.711Z,12.40
2023-03-13T06:16:34.596Z,12.52
2023-03-13T06:19:02.145Z,12.49
2023-03-13T06:21:31.959Z,12.52
2023-03-13T06:23:58.412Z,12.57
2023-03-13T06:26:25.720Z,12.63
2023-03-13T06:28:52.488Z,12.68
2023-03-13T06:31:18.971Z,12.62
2023-03-13T06:33:45.428Z,12.65
2023-03-13T06:36:12.645Z,12.63
2023-03-13T06:38:39.890Z,12.70
2023-03-13T06:41:08.872Z,12.66
2023-03-13T06:43:35.313Z,12.67
2023-03-13T06:46:05.487Z,12.67
2023-03-13T06:48:32.236Z,12.72
2023-03-13T06:50:58.648Z,12.73
2023-03-13T06:53:25.290Z,12.74
2023-03-13T06:55:52.188Z,12.77
2023-03-13T06:58:31.750Z,12.82
2023-03-13T07:01:06.403Z,12.79
2023-03-13T07:03:33.251Z,12.83
2023-03-13T07:06:04.331Z,12.85
2023-03-13T07:08:30.937Z,12.87
2023-03-13T07:11:04.417Z,12.94
2023-03-13T07:13:31.243Z,12.98
2023-03-13T07:16:04.168Z,13.06
2023-03-13T07:18:31.404Z,13.11
2023-03-13T07:20:59.552Z,13.16
2023-03-13T07:23:28.423Z,13.19
2023-03-13T07:26:03.273Z,13.23
2023-03-13T07:28:31.549Z,13.34
2023-03-13T07:31:06.369Z,13.46
2023-03-13T07:33:33.467Z,13.61
2023-03-13T07:36:00.125Z,13.74
2023-03-13T07:38:26.832Z,13.91
2023-03-13T07:40:55.334Z,13.81
2023-03-13T07:43:22.588Z,13.75
2023-03-13T07:45:52.255Z,13.69
2023-03-13T07:48:19.759Z,13.75
2023-03-13T07:50:46.330Z,13.86
2023-03-13T07:53:15.058Z,13.84
2023-03-13T07:55:42.526Z,13.92
2023-03-13T07:58:08.982Z,13.90
2023-03-13T08:00:35.431Z,13.99
2023-03-13T08:03:01.979Z,14.01
2023-03-13T08:05:28.359Z,14.06
2023-03-13T08:07:57.369Z,14.00
2023-03-13T08:10:23.765Z,14.01
2023-03-13T08:12:50.130Z,14.02
2023-03-13T08:15:18.682Z,13.97
2023-03-13T08:17:45.058Z,13.95
2023-03-13T08:20:11.705Z,13.94
2023-03-13T08:22:38.225Z,14.03
2023-03-13T08:25:04.937Z,14.03
2023-03-13T08:27:31.350Z,14.03
2023-03-13T08:29:57.813Z,14.11
2023-03-13T08:32:24.233Z,14.12
2023-03-13T08:34:53.024Z,14.17
2023-03-13T08:37:19.717Z,14.18
2023-03-13T08:39:46.200Z,14.18
2023-03-13T08:42:14.294Z,14.17
2023-03-13T08:44:40.918Z,14.24
2023-03-13T08:47:08.225Z,14.30
2023-03-13T08:49:35.010Z,14.32
2023-03-13T08:52:01.419Z,14.46
2023-03-13T08:54:32.603Z,14.44
2023-03-13T08:56:59.971Z,14.44
2023-03-13T08:59:26.633Z,14.52
2023-03-13T09:01:53.134Z,14.57
2023-03-13T09:04:20.234Z,14.66
2023-03-13T09:06:46.783Z,14.54
2023-03-13T09:09:14.265Z,14.56
2023-03-13T09:11:40.682Z,14.62
2023-03-13T09:14:08.868Z,14.76
2023-03-13T09:16:35.391Z,15.18
2023-03-13T09:19:02.242Z,15.53
2023-03-13T09:21:35.435Z,15.59
2023-03-13T09:24:02.325Z,15.73
2023-03-13T09:26:29.200Z,15.84
2023-03-13T09:28:58.836Z,15.93
2023-03-13T09:31:30.889Z,15.83
2023-03-13T09:33:59.420Z,15.75
2023-03-13T09:36:26.698Z,15.57
2023-03-13T09:38:55.939Z,15.71
2023-03-13T09:41:40.551Z,15.53
2023-03-13T09:44:14.415Z,15.43
2023-03-13T09:46:53.014Z,15.41
2023-03-13T09:49:39.566Z,15.38
2023-03-13T09:52:25.873Z,15.37
2023-03-13T09:55:03.858Z,15.44
2023-03-13T09:57:52.681Z,15.66
2023-03-13T10:00:24.175Z,15.63
2023-03-13T10:03:03.194Z,15.84
2023-03-13T10:05:30.062Z,16.02
2023-03-13T10:08:03.080Z,16.06
2023-03-13T10:10:43.645Z,16.02
2023-03-13T10:13:38.980Z,15.91
2023-03-13T10:16:19.388Z,16.05
2023-03-13T10:18:51.240Z,16.22
2023-03-13T10:21:20.919Z,16.75
2023-03-13T10:24:18.384Z,16.79
2023-03-13T10:26:47.814Z,16.82
2023-03-13T10:29:26.260Z,17.06
2023-03-13T10:32:14.307Z,17.24
2023-03-13T10:34:50.401Z,17.25
2023-03-13T10:37:21.859Z,17.05
2023-03-13T10:39:48.271Z,17.03
2023-03-13T10:42:22.122Z,16.89
2023-03-13T10:44:56.143Z,17.00
2023-03-13T10:47:22.739Z,16.82
2023-03-13T10:49:52.137Z,17.03
2023-03-13T10:52:47.554Z,17.39
2023-03-13T10:55:22.133Z,17.49
2023-03-13T10:58:06.821Z,17.67
2023-03-13T11:00:41.204Z,17.86
2023-03-13T11:03:18.800Z,18.06
2023-03-13T11:05:59.341Z,18.28
2023-03-13T11:08:28.169Z,18.44
2023-03-13T11:10:55.533Z,18.49
2023-03-13T11:13:45.048Z,18.54
2023-03-13T11:16:20.920Z,18.51
2023-03-13T11:18:53.544Z,18.54
2023-03-13T11:21:47.497Z,18.39
2023-03-13T11:24:40.267Z,18.45
2023-03-13T11:27:40.694Z,18.53
2023-03-13T11:30:25.334Z,18.41
2023-03-13T11:32:55.845Z,18.22
2023-03-13T11:35:28.091Z,18.10
2023-03-13T11:37:57.368Z,18.21
2023-03-13T11:40:57.819Z,18.21
2023-03-13T11:43:27.002Z,18.29
2023-03-13T11:45:56.586Z,18.45
2023-03-13T11:48:50.643Z,18.87
2023-03-13T11:51:46.154Z,18.95
2023-03-13T11:54:31.402Z,19.35
2023-03-13T11:57:29.759Z,19.62
2023-03-13T12:00:22.927Z,19.61
2023-03-13T12:02:56.740Z,19.53
2023-03-13T12:05:28.714Z,19.42
2023-03-13T12:08:07.434Z,19.53
2023-03-13T12:10:40.592Z,19.51
2023-03-13T12:13:19.431Z,19.55
2023-03-13T12:15:52.451Z,19.50
2023-03-13T12:18:39.179Z,19.65
2023-03-13T12:21:32.399Z,19.38
2023-03-13T12:24:23.917Z,19.38
2023-03-13T12:27:10.655Z,19.43
2023-03-13T12:29:46.237Z,19.39
2023-03-13T12:32:18.167Z,19.49
2023-03-13T12:34:59.545Z,19.62
2023-03-13T12:37:41.983Z,19.69
2023-03-13T12:40:39.084Z,19.73
2023-03-13T12:43:08.734Z,19.72
2023-03-13T12:45:38.756Z,19.67
2023-03-13T12:48:26.301Z,19.84
2023-03-13T12:51:07.011Z,20.01
2023-03-13T12:53:42.769Z,19.87
2023-03-13T12:56:12.163Z,19.66
2023-03-13T12:59:00.613Z,19.53
2023-03-13T13:01:48.202Z,19.44
2023-03-13T13:04:40.443Z,19.46
2023-03-13T13:07:19.893Z,19.57
2023-03-13T13:10:10.802Z,19.75
2023-03-13T13:12:39.212Z,19.71
2023-03-13T13:15:25.093Z,19.80
2023-03-13T13:18:14.846Z,19.94
2023-03-13T13:20:48.937Z,20.13
2023-03-13T13:23:48.058Z,20.44
2023-03-13T13:26:26.798Z,20.65
2023-03-13T13:28:54.116Z,20.64
2023-03-13T13:31:45.824Z,20.56
2023-03-13T13:34:31.130Z,20.59
2023-03-13T13:36:59.622Z,20.49
2023-03-13T13:39:34.587Z,20.81
2023-03-13T13:42:30.567Z,20.81
2023-03-13T13:44:59.657Z,20.92
2023-03-13T13:47:28.233Z,20.95
2023-03-13T13:49:57.053Z,21.05
2023-03-13T13:52:38.396Z,21.10
2023-03-13T13:55:28.335Z,21.04
2023-03-13T13:58:03.248Z,21.01
2023-03-13T14:00:40.883Z,21.15
2023-03-13T14:03:25.650Z,21.63
2023-03-13T14:05:56.077Z,21.45
2023-03-13T14:08:41.205Z,21.41
2023-03-13T14:11:37.219Z,21.30
2023-03-13T14:14:22.366Z,21.54
2023-03-13T14:16:51.826Z,21.69
2023-03-13T14:19:21.681Z,21.84
2023-03-13T14:21:48.287Z,21.57
2023-03-13T14:24:16.025Z,21.46
2023-03-13T14:26:46.198Z,21.46
2023-03-13T14:29:25.349Z,21.41
2023-03-13T14:31:54.649Z,21.49
2023-03-13T14:34:22.311Z,21.52
2023-03-13T14:37:10.951Z,21.46
2023-03-13T14:39:45.672Z,21.31
2023-03-13T14:42:14.174Z,21.26
2023-03-13T14:44:46.550Z,21.12
2023-03-13T14:47:33.286Z,21.18
2023-03-13T14:50:12.398Z,21.19
2023-03-13T14:52:49.020Z,21.19
2023-03-13T14:55:21.878Z,21.14
2023-03-13T14:58:20.441Z,21.09
2023-03-13T15:00:50.606Z,21.15
2023-03-13T15:03:17.018Z,20.90
2023-03-13T15:05:45.435Z,20.85
2023-03-13T15:08:23.294Z,20.77
2023-03-13T15:10:50.548Z,20.91
2023-03-13T15:13:20.058Z,20.82
2023-03-13T15:15:50.369Z,20.95
2023-03-13T15:18:23.490Z,20.94
2023-03-13T15:20:58.693Z,21.03
2023-03-13T15:23:25.844Z,20.91
2023-03-13T15:25:52.284Z,20.96
2023-03-13T15:28:23.764Z,20.88
2023-03-13T15:30:52.013Z,20.89
2023-03-13T15:33:21.646Z,20.91
2023-03-13T15:35:49.069Z,20.94
2023-03-13T15:38:18.633Z,20.75
2023-03-13T15:40:45.693Z,20.76
2023-03-13T15:43:13.252Z,20.82
2023-03-13T15:45:42.176Z,20.86
2023-03-13T15:48:23.339Z,20.82
2023-03-13T15:50:51.977Z,20.80
2023-03-13T15:53:24.420Z,20.70
2023-03-13T15:55:55.024Z,20.52
2023-03-13T15:58:21.511Z,20.38
2023-03-13T16:00:49.045Z,20.24
2023-03-13T16:03:29.361Z,20.20
2023-03-13T16:05:59.290Z,20.24
2023-03-13T16:08:37.040Z,20.20
2023-03-13T16:11:04.034Z,20.10
2023-03-13T16:13:31.406Z,20.00
2023-03-13T16:15:58.627Z,20.00
2023-03-13T16:18:26.186Z,19.98
2023-03-13T16:20:53.008Z,18.97
2023-03-13T16:23:21.802Z,18.65
2023-03-13T16:25:51.263Z,18.38
2023-03-13T16:28:19.998Z,18.10
2023-03-13T16:30:49.268Z,18.05
2023-03-13T16:33:17.975Z,17.90
2023-03-13T16:35:44.879Z,17.74
2023-03-13T16:38:11.784Z,17.61
2023-03-13T16:40:38.607Z,17.56
2023-03-13T16:43:05.217Z,17.48
2023-03-13T16:45:31.723Z,17.45
2023-03-13T16:48:00.709Z,17.36
2023-03-13T16:50:32.947Z,17.25
2023-03-13T16:53:01.894Z,17.13
2023-03-13T16:55:36.382Z,17.03
2023-03-13T16:58:06.752Z,17.05
2023-03-13T17:00:33.395Z,16.82
2023-03-13T17:03:01.383Z,16.80
2023-03-13T17:05:28.314Z,16.59
2023-03-13T17:07:54.915Z,16.41
2023-03-13T17:10:24.697Z,16.32
2023-03-13T17:12:53.795Z,16.24
2023-03-13T17:15:20.685Z,16.11
2023-03-13T17:17:52.349Z,16.05
2023-03-13T17:20:21.976Z,15.76
2023-03-13T17:22:48.586Z,15.48
2023-03-13T17:25:15.447Z,15.36
2023-03-13T17:27:43.302Z,15.20
2023-03-13T17:30:22.272Z,14.99
2023-03-13T17:32:54.679Z,14.83
2023-03-13T17:35:24.582Z,14.71
2023-03-13T17:37:53.409Z,14.63
2023-03-13T17:40:26.779Z,14.55
2023-03-13T17:42:53.441Z,14.49
2023-03-13T17:45:20.085Z,14.45
2023-03-13T17:47:47.245Z,14.41
2023-03-13T17:50:27.266Z,14.36
2023-03-13T17:52:56.197Z,14.40
2023-03-13T17:55:23.077Z,14.41
2023-03-13T17:57:49.614Z,14.35
2023-03-13T18:00:31.735Z,14.22
2023-03-13T18:02:59.149Z,14.13
2023-03-13T18:05:26.324Z,14.10
2023-03-13T18:07:57.771Z,14.01
2023-03-13T18:10:27.038Z,13.93
2023-03-13T18:12:53.783Z,13.95
2023-03-13T18:15:22.309Z,13.91
2023-03-13T18:17:49.505Z,13.89
2023-03-13T18:20:21.782Z,13.89
2023-03-13T18:22:48.596Z,13.83
2023-03-13T18:25:15.259Z,13.85
2023-03-13T18:28:11.418Z,13.83
2023-03-13T18:30:39.493Z,13.78
2023-03-13T18:33:11.146Z,13.72
2023-03-13T18:35:37.960Z,13.78
2023-03-13T18:38:04.506Z,13.77
2023-03-13T18:40:31.281Z,13.88
2023-03-13T18:43:00.326Z,13.77
2023-03-13T18:45:27.282Z,13.75
2023-03-13T18:47:58.738Z,13.67
2023-03-13T18:50:32.354Z,13.60
2023-03-13T18:53:02.802Z,13.61
2023-03-13T18:55:31.234Z,13.62
2023-03-13T18:57:57.952Z,13.65
2023-03-13T19:00:29.680Z,13.64
2023-03-13T19:02:56.330Z,13.60
2023-03-13T19:05:23.310Z,13.62
2023-03-13T19:07:49.770Z,13.64
2023-03-13T19:10:24.179Z,13.58
2023-03-13T19:12:51.882Z,13.52
2023-03-13T19:15:21.911Z,13.51
2023-03-13T19:17:48.488Z,13.62
2023-03-13T19:20:17.899Z,13.59
2023-03-13T19:22:44.496Z,13.56
2023-03-13T19:25:11.897Z,13.32
2023-03-13T19:27:43.667Z,13.10
2023-03-13T19:30:25.187Z,12.81
2023-03-13T19:32:54.085Z,12.55
2023-03-13T19:35:23.167Z,12.40
2023-03-13T19:37:51.995Z,12.29
2023-03-13T19:40:21.293Z,12.22
2023-03-13T19:42:47.701Z,12.22
2023-03-13T19:45:14.507Z,12.06
2023-03-13T19:47:41.024Z,11.96
2023-03-13T19:50:17.300Z,11.92
2023-03-13T19:52:45.444Z,11.87
2023-03-13T19:55:14.686Z,11.83
2023-03-13T19:57:41.593Z,11.77
2023-03-13T20:00:14.033Z,11.86
2023-03-13T20:02:41.508Z,11.73
2023-03-13T20:05:10.292Z,11.75
2023-03-13T20:07:37.470Z,11.72
2023-03-13T20:10:05.401Z,11.72
2023-03-13T20:12:32.167Z,11.66
2023-03-13T20:14:58.685Z,11.60
2023-03-13T20:17:25.248Z,11.59
2023-03-13T20:23:05.600Z,11.57
2023-03-13T20:25:32.204Z,11.51
2023-03-13T20:27:58.657Z,11.62
2023-03-13T20:30:25.058Z,11.64
2023-03-13T20:32:59.328Z,11.70
2023-03-13T20:35:27.900Z,11.68
2023-03-13T20:37:54.646Z,11.64
2023-03-13T20:40:21.180Z,11.72
2023-03-13T20:42:49.742Z,11.66
2023-03-13T20:45:16.326Z,11.69
2023-03-13T20:47:42.888Z,11.70
2023-03-13T20:50:09.906Z,11.70
2023-03-13T20:52:36.445Z,11.54
2023-03-13T20:55:03.034Z,11.49
2023-03-13T20:57:29.435Z,11.43
2023-03-13T20:59:56.079Z,11.38
2023-03-13T21:02:25.017Z,11.38
2023-03-13T21:04:53.712Z,11.31
2023-03-13T21:07:20.864Z,11.33
2023-03-13T21:09:47.326Z,11.27
2023-03-13T21:12:13.669Z,11.26
2023-03-13T21:14:44.789Z,11.21
2023-03-13T21:17:15.733Z,11.22
2023-03-13T21:19:43.796Z,11.18
2023-03-13T21:22:10.510Z,11.15
2023-03-13T21:24:37.003Z,11.13
2023-03-13T21:27:03.432Z,11.09
2023-03-13T21:29:29.852Z,11.07
2023-03-13T21:31:56.336Z,11.06
2023-03-13T21:34:22.970Z,11.05
2023-03-13T21:36:54.494Z,11.03
2023-03-13T21:39:21.171Z,11.01
2023-03-13T21:41:49.912Z,11.00
2023-03-13T21:44:19.633Z,11.01
2023-03-13T21:46:48.573Z,11.01
2023-03-13T21:49:15.188Z,10.99
2023-03-13T21:51:41.764Z,11.00
2023-03-13T21:54:08.189Z,11.04
2023-03-13T21:56:37.743Z,11.01
2023-03-13T21:59:04.179Z,10.94
2023-03-13T22:01:33.692Z,10.94
2023-03-13T22:04:02.672Z,10.93
2023-03-13T22:06:29.154Z,10.89
2023-03-13T22:09:00.429Z,10.93
2023-03-13T22:11:27.989Z,10.93
2023-03-13T22:13:54.517Z,10.93
2023-03-13T22:16:26.759Z,10.91
2023-03-13T22:18:54.986Z,10.91
2023-03-13T22:21:21.524Z,10.90
2023-03-13T22:23:47.921Z,10.87
2023-03-13T22:26:14.838Z,10.85
2023-03-13T22:28:43.826Z,10.78
2023-03-13T22:31:11.674Z,10.76
2023-03-13T22:33:38.081Z,10.76
2023-03-13T22:36:05.143Z,10.72
2023-03-13T22:38:31.634Z,10.70
2023-03-13T22:41:00.971Z,10.74
2023-03-13T22:43:27.921Z,10.70
2023-03-13T22:45:55.723Z,10.68
2023-03-13T22:48:22.138Z,10.66
2023-03-13T22:50:48.618Z,10.68
2023-03-13T22:53:17.321Z,10.68
2023-03-13T22:55:43.735Z,10.57
2023-03-13T22:58:10.150Z,10.60
2023-03-13T23:00:39.115Z,10.60
2023-03-13T23:03:05.493Z,10.59
2023-03-13T23:05:36.954Z,10.56
2023-03-13T23:08:03.507Z,10.48
2023-03-13T23:10:30.219Z,10.55
2023-03-13T23:12:59.260Z,10.44
2023-03-13T23:15:33.469Z,10.54
2023-03-13T23:18:04.809Z,10.52
2023-03-13T23:20:31.189Z,10.66
2023-03-13T23:22:57.759Z,10.71
2023-03-13T23:25:24.265Z,10.72
2023-03-13T23:27:51.102Z,10.71
2023-03-13T23:30:18.360Z,10.74
2023-03-13T23:32:46.735Z,10.74
2023-03-13T23:35:19.055Z,10.76
2023-03-13T23:37:49.207Z,10.78
2023-03-13T23:40:15.993Z,10.74
2023-03-13T23:42:46.744Z,10.73
2023-03-13T23:45:14.090Z,10.78
2023-03-13T23:47:41.987Z,10.75
2023-03-13T23:50:12.371Z,10.68
2023-03-13T23:52:39.852Z,10.82
2023-03-13T23:55:07.107Z,10.76
2023-03-13T23:57:33.813Z,10.70
